createdAt,value
2023-03-13T00:02:15.381Z,2.97
2023-03-13T00:04:43.611Z,3.90
2023-03-13T00:07:13.790Z,3.80
2023-03-13T00:09:41.988Z,4.07
2023-03-13T00:12:10.396Z,3.53
2023-03-13T00:14:38.598Z,3.57
2023-03-13T00:17:06.920Z,3.73
2023-03-13T00:19:35.090Z,3.17
2023-03-13T00:22:03.271Z,2.90
2023-03-13T00:24:33.993Z,2.67
2023-03-13T00:27:03.302Z,3.03
2023-03-13T00:29:31.586Z,3.23
2023-03-13T00:31:59.787Z,3.00
2023-03-13T00:34:28.038Z,2.77
2023-03-13T00:36:56.795Z,3.40
2023-03-13T00:39:24.989Z,2.80
2023-03-13T00:41:54.534Z,2.73
2023-03-13T00:44:22.711Z,2.80
2023-03-13T00:46:50.879Z,3.10
2023-03-13T00:49:19.011Z,3.10
2023-03-13T00:51:47.205Z,2.77
2023-03-13T00:54:15.345Z,2.93
2023-03-13T00:56:43.593Z,2.80
2023-03-13T00:59:13.085Z,2.60
2023-03-13T01:01:41.257Z,2.77
2023-03-13T01:04:10.493Z,2.67
2023-03-13T01:06:40.679Z,2.20
2023-03-13T01:09:09.345Z,2.20
2023-03-13T01:11:38.470Z,2.43
2023-03-13T01:14:07.844Z,1.90
2023-03-13T01:16:38.467Z,2.33
2023-03-13T01:19:07.660Z,2.33
2023-03-13T01:21:36.076Z,1.67
2023-03-13T01:24:04.673Z,1.93
2023-03-13T01:26:32.942Z,2.03
2023-03-13T01:29:01.107Z,2.00
2023-03-13T01:31:30.467Z,1.40
2023-03-13T01:34:01.098Z,2.27
2023-03-13T01:36:29.555Z,1.60
2023-03-13T01:38:58.420Z,1.40
2023-03-13T01:41:27.095Z,1.60
2023-03-13T01:43:56.189Z,1.80
2023-03-13T01:46:25.212Z,1.40
2023-03-13T01:48:54.524Z,1.97
2023-03-13T01:51:25.592Z,1.40
2023-03-13T01:53:56.494Z,1.30
2023-03-13T01:56:28.578Z,1.20
2023-03-13T01:58:57.638Z,1.17
2023-03-13T02:01:26.454Z,0.97
2023-03-13T02:03:54.978Z,1.30
2023-03-13T02:06:24.689Z,1.23
2023-03-13T02:08:55.303Z,1.30
2023-03-13T02:11:26.169Z,1.00
2023-03-13T02:13:55.391Z,0.90
2023-03-13T02:16:23.864Z,1.00
2023-03-13T02:18:52.238Z,0.90
2023-03-13T02:21:24.220Z,1.00
2023-03-13T02:23:58.278Z,0.90
2023-03-13T02:26:27.952Z,1.00
2023-03-13T02:28:56.283Z,1.00
2023-03-13T02:31:24.524Z,0.70
2023-03-13T02:33:52.701Z,0.83
2023-03-13T02:36:21.219Z,1.00
2023-03-13T02:38:52.370Z,1.03
2023-03-13T02:41:20.822Z,1.07
2023-03-13T02:43:50.479Z,1.10
2023-03-13T02:46:20.023Z,1.00
2023-03-13T02:48:49.337Z,0.90
2023-03-13T02:51:20.436Z,1.00
2023-03-13T02:53:50.441Z,1.20
2023-03-13T02:56:19.539Z,1.13
2023-03-13T02:58:50.106Z,1.10
2023-03-13T03:01:20.236Z,1.30
2023-03-13T03:03:48.773Z,1.53
2023-03-13T03:06:16.969Z,1.50
2023-03-13T03:08:45.532Z,1.40
2023-03-13T03:11:13.937Z,1.70
2023-03-13T03:13:42.897Z,1.50
2023-03-13T03:16:11.929Z,1.60
2023-03-13T03:18:41.463Z,1.43
2023-03-13T03:21:09.618Z,1.67
2023-03-13T03:23:38.303Z,1.33
2023-03-13T03:26:07.257Z,1.70
2023-03-13T03:28:35.527Z,1.47
2023-03-13T03:31:05.830Z,1.60
2023-03-13T03:33:33.981Z,1.63
2023-03-13T03:36:04.085Z,1.40
2023-03-13T03:38:32.921Z,1.60
2023-03-13T03:41:01.075Z,1.70
2023-03-13T03:43:29.458Z,1.30
2023-03-13T03:45:57.682Z,1.20
2023-03-13T03:48:25.933Z,1.40
2023-03-13T03:50:54.105Z,1.30
2023-03-13T03:53:23.686Z,1.10
2023-03-13T03:55:51.858Z,1.00
2023-03-13T03:58:20.032Z,1.27
2023-03-13T04:00:48.729Z,1.13
2023-03-13T04:03:17.789Z,1.10
2023-03-13T04:05:46.077Z,1.07
2023-03-13T04:08:14.457Z,1.10
2023-03-13T04:10:44.011Z,1.00
2023-03-13T04:13:12.187Z,1.07
2023-03-13T04:15:40.334Z,1.00
2023-03-13T04:18:08.557Z,1.30
2023-03-13T04:20:37.226Z,1.40
2023-03-13T04:23:05.549Z,1.60
2023-03-13T04:25:33.695Z,1.30
2023-03-13T04:28:03.195Z,1.30
2023-03-13T04:30:31.386Z,1.70
2023-03-13T04:32:59.640Z,1.60
2023-03-13T04:35:27.977Z,1.73
2023-03-13T04:37:56.210Z,1.77
2023-03-13T04:40:24.384Z,1.53
2023-03-13T04:42:52.521Z,1.73
2023-03-13T04:45:22.066Z,1.73
2023-03-13T04:47:50.229Z,1.50
2023-03-13T04:50:18.433Z,1.47
2023-03-13T04:52:48.588Z,1.67
2023-03-13T04:55:17.822Z,1.47
2023-03-13T04:57:45.986Z,1.73
2023-03-13T05:00:14.608Z,1.70
2023-03-13T05:02:44.102Z,1.67
2023-03-13T05:05:12.318Z,1.77
2023-03-13T05:07:40.530Z,1.60
2023-03-13T05:10:08.977Z,1.63
2023-03-13T05:12:37.171Z,1.40
2023-03-13T05:15:05.531Z,1.40
2023-03-13T05:17:34.535Z,1.50
2023-03-13T05:20:07.715Z,1.70
2023-03-13T05:22:35.900Z,1.50
2023-03-13T05:25:05.005Z,1.40
2023-03-13T05:27:33.244Z,1.50
2023-03-13T05:30:01.423Z,1.47
2023-03-13T05:32:29.683Z,1.57
2023-03-13T05:34:57.938Z,1.63
2023-03-13T05:37:27.511Z,1.43
2023-03-13T05:39:55.718Z,1.87
2023-03-13T05:42:23.909Z,1.80
2023-03-13T05:44:52.072Z,1.70
2023-03-13T05:47:20.243Z,1.90
2023-03-13T05:49:48.418Z,1.50
2023-03-13T05:52:16.616Z,1.40
2023-03-13T05:54:46.171Z,1.60
2023-03-13T05:57:14.372Z,1.47
2023-03-13T05:59:42.929Z,1.90
2023-03-13T06:02:11.149Z,2.20
2023-03-13T06:04:39.593Z,1.90
2023-03-13T06:07:07.828Z,2.03
2023-03-13T06:09:36.022Z,1.80
2023-03-13T06:12:05.649Z,1.90
2023-03-13T06:14:33.806Z,2.23
2023-03-13T06:17:01.982Z,1.87
2023-03-13T06:19:30.143Z,2.07
2023-03-13T06:21:58.311Z,2.17
2023-03-13T06:24:26.495Z,2.30
2023-03-13T06:26:54.870Z,2.10
2023-03-13T06:29:25.363Z,2.27
2023-03-13T06:31:53.688Z,2.10
2023-03-13T06:34:21.960Z,2.47
2023-03-13T06:36:50.131Z,2.43
2023-03-13T06:39:18.287Z,2.50
2023-03-13T06:41:47.127Z,2.40
2023-03-13T06:44:15.345Z,2.80
2023-03-13T06:46:44.911Z,2.37
2023-03-13T06:49:13.134Z,2.33
2023-03-13T06:51:41.294Z,2.30
2023-03-13T06:54:09.482Z,2.47
2023-03-13T06:56:37.655Z,2.67
2023-03-13T06:59:05.812Z,2.63
2023-03-13T07:01:34.001Z,2.90
2023-03-13T07:04:03.686Z,2.90
2023-03-13T07:06:31.954Z,2.40
2023-03-13T07:09:00.139Z,2.37
2023-03-13T07:11:28.303Z,2.43
2023-03-13T07:14:10.142Z,2.30
2023-03-13T07:16:43.815Z,2.63
2023-03-13T07:19:13.353Z,2.67
2023-03-13T07:21:41.497Z,2.40
2023-03-13T07:24:10.131Z,2.03
2023-03-13T07:26:39.214Z,2.70
2023-03-13T07:29:07.415Z,2.30
2023-03-13T07:31:35.676Z,2.67
2023-03-13T07:34:03.887Z,2.67
2023-03-13T07:36:35.379Z,2.70
2023-03-13T07:39:03.632Z,2.40
2023-03-13T07:41:31.791Z,2.83
2023-03-13T07:43:59.937Z,2.60
2023-03-13T07:46:28.143Z,2.20
2023-03-13T07:48:56.409Z,2.37
2023-03-13T07:51:42.130Z,2.93
2023-03-13T07:54:12.773Z,2.40
2023-03-13T07:56:41.332Z,2.30
2023-03-13T07:59:09.617Z,2.63
2023-03-13T08:01:37.917Z,2.90
2023-03-13T08:04:06.261Z,2.80
2023-03-13T08:06:36.507Z,2.60
2023-03-13T08:09:05.469Z,2.70
2023-03-13T08:11:35.022Z,3.27
2023-03-13T08:14:03.340Z,3.23
2023-03-13T08:16:33.981Z,2.20
2023-03-13T08:19:04.456Z,2.80
2023-03-13T08:21:36.933Z,2.77
2023-03-13T08:24:06.962Z,3.30
2023-03-13T08:26:38.055Z,3.20
2023-03-13T08:29:07.319Z,3.17
2023-03-13T08:31:36.525Z,2.67
2023-03-13T08:34:05.044Z,2.77
2023-03-13T08:36:33.991Z,3.17
2023-03-13T08:39:02.948Z,3.00
2023-03-13T08:41:32.164Z,3.07
2023-03-13T08:44:02.347Z,3.27
2023-03-13T08:46:31.771Z,3.10
2023-03-13T08:49:00.148Z,2.57
2023-03-13T08:51:29.119Z,3.07
2023-03-13T08:53:58.203Z,3.10
2023-03-13T08:56:27.970Z,2.57
2023-03-13T08:58:56.860Z,2.83
2023-03-13T09:01:27.463Z,3.40
2023-03-13T09:03:55.689Z,3.17
2023-03-13T09:06:24.237Z,3.20
2023-03-13T09:08:52.393Z,2.90
2023-03-13T09:11:21.472Z,3.20
2023-03-13T09:13:50.378Z,2.73
2023-03-13T09:16:19.277Z,2.70
2023-03-13T09:18:49.040Z,3.40
2023-03-13T09:21:18.184Z,3.00
2023-03-13T09:23:47.303Z,3.57
2023-03-13T09:26:16.028Z,2.83
2023-03-13T09:28:44.271Z,2.90
2023-03-13T09:31:13.251Z,2.90
2023-03-13T09:33:41.712Z,2.77
2023-03-13T09:36:12.134Z,2.70
2023-03-13T09:38:40.416Z,2.63
2023-03-13T09:41:17.284Z,2.60
2023-03-13T09:43:49.050Z,3.03
2023-03-13T09:46:20.142Z,2.70
2023-03-13T09:48:50.929Z,2.50
2023-03-13T09:51:23.141Z,2.83
2023-03-13T09:53:53.847Z,2.50
2023-03-13T09:56:24.683Z,2.30
2023-03-13T09:58:55.679Z,1.73
2023-03-13T10:01:26.004Z,1.90
2023-03-13T10:03:58.215Z,2.13
2023-03-13T10:06:29.530Z,1.90
2023-03-13T10:09:01.176Z,1.83
2023-03-13T10:11:30.379Z,2.10
2023-03-13T10:14:02.070Z,1.90
2023-03-13T10:16:32.837Z,1.90
2023-03-13T10:19:01.734Z,2.03
2023-03-13T10:21:34.329Z,1.90
2023-03-13T10:24:05.547Z,1.60
2023-03-13T10:26:35.901Z,2.00
2023-03-13T10:29:12.880Z,1.70
2023-03-13T10:31:41.088Z,1.80
2023-03-13T10:34:09.495Z,1.43
2023-03-13T10:36:43.704Z,1.50
2023-03-13T10:39:16.613Z,1.33
2023-03-13T10:41:44.810Z,1.40
2023-03-13T10:44:17.923Z,1.60
2023-03-13T10:46:47.899Z,1.30
2023-03-13T10:49:17.618Z,1.50
2023-03-13T10:51:49.365Z,1.37
2023-03-13T10:54:23.326Z,1.40
2023-03-13T10:56:51.512Z,1.33
2023-03-13T10:59:22.203Z,1.30
2023-03-13T11:01:50.662Z,1.60
2023-03-13T11:04:23.420Z,1.20
2023-03-13T11:06:53.912Z,1.40
2023-03-13T11:09:22.416Z,1.10
2023-03-13T11:11:51.227Z,1.50
2023-03-13T11:14:20.366Z,1.20
2023-03-13T11:16:50.348Z,1.23
2023-03-13T11:19:26.490Z,0.97
2023-03-13T11:22:02.490Z,1.10
2023-03-13T11:24:34.236Z,1.30
2023-03-13T11:27:08.028Z,1.10
2023-03-13T11:29:40.113Z,1.00
2023-03-13T11:32:12.699Z,0.90
2023-03-13T11:34:42.232Z,1.07
2023-03-13T11:37:16.040Z,1.20
2023-03-13T11:39:57.110Z,1.30
2023-03-13T11:42:40.398Z,0.93
2023-03-13T11:45:11.725Z,1.10
2023-03-13T11:47:47.231Z,1.00
2023-03-13T11:50:26.158Z,1.07
2023-03-13T11:53:05.329Z,1.20
2023-03-13T11:55:41.741Z,1.43
2023-03-13T11:58:24.303Z,1.60
2023-03-13T12:00:57.287Z,1.30
2023-03-13T12:03:29.009Z,1.33
2023-03-13T12:05:58.720Z,1.30
2023-03-13T12:08:29.923Z,1.17
2023-03-13T12:11:04.818Z,1.10
2023-03-13T12:13:34.867Z,1.10
2023-03-13T12:16:05.197Z,1.50
2023-03-13T12:18:34.757Z,1.00
2023-03-13T12:21:04.780Z,1.27
2023-03-13T12:23:39.077Z,1.30
2023-03-13T12:26:08.793Z,1.50
2023-03-13T12:28:39.650Z,1.50
2023-03-13T12:31:15.601Z,1.20
2023-03-13T12:33:45.900Z,1.50
2023-03-13T12:36:15.745Z,1.30
2023-03-13T12:38:49.575Z,1.40
2023-03-13T12:41:21.693Z,1.33
2023-03-13T12:44:07.372Z,1.70
2023-03-13T12:46:39.457Z,1.50
2023-03-13T12:49:31.567Z,1.33
2023-03-13T12:52:07.918Z,1.17
2023-03-13T12:54:42.089Z,1.30
2023-03-13T12:57:14.883Z,1.20
2023-03-13T12:59:44.097Z,1.20
2023-03-13T13:02:16.928Z,1.30
2023-03-13T13:04:46.352Z,1.27
2023-03-13T13:07:23.001Z,1.30
2023-03-13T13:10:16.854Z,1.53
2023-03-13T13:12:45.882Z,1.17
2023-03-13T13:15:17.679Z,1.27
2023-03-13T13:18:04.197Z,1.40
2023-03-13T13:20:50.070Z,1.40
2023-03-13T13:23:48.082Z,1.33
2023-03-13T13:26:49.554Z,1.47
2023-03-13T13:29:36.365Z,1.70
2023-03-13T13:32:08.498Z,1.37
2023-03-13T13:34:55.494Z,1.30
2023-03-13T13:37:29.214Z,1.33
2023-03-13T13:40:12.075Z,1.87
2023-03-13T13:42:50.069Z,1.57
2023-03-13T13:45:27.521Z,1.30
2023-03-13T13:48:10.566Z,1.30
2023-03-13T13:50:40.144Z,1.20
2023-03-13T13:53:32.080Z,1.10
2023-03-13T13:56:00.680Z,0.93
2023-03-13T13:58:30.418Z,1.27
2023-03-13T14:01:00.069Z,1.27
2023-03-13T14:03:29.020Z,1.17
2023-03-13T14:06:01.013Z,1.33
2023-03-13T14:08:30.731Z,1.20
2023-03-13T14:11:07.685Z,1.57
2023-03-13T14:13:35.868Z,1.47
2023-03-13T14:16:22.374Z,1.20
2023-03-13T14:18:53.579Z,1.23
2023-03-13T14:21:25.185Z,1.10
2023-03-13T14:23:53.536Z,1.67
2023-03-13T14:26:22.476Z,1.30
2023-03-13T14:28:51.667Z,1.60
2023-03-13T14:31:23.856Z,1.33
2023-03-13T14:33:52.178Z,1.30
2023-03-13T14:36:20.403Z,1.07
2023-03-13T14:38:57.114Z,1.00
2023-03-13T14:41:30.531Z,2.80
2023-03-13T14:44:04.212Z,1.37
2023-03-13T14:46:34.146Z,1.20
2023-03-13T14:49:08.047Z,0.90
2023-03-13T14:51:39.840Z,1.10
2023-03-13T14:54:25.564Z,1.13
2023-03-13T14:57:03.722Z,1.37
2023-03-13T14:59:32.010Z,1.00
2023-03-13T15:02:01.581Z,1.07
2023-03-13T15:04:48.518Z,1.20
2023-03-13T15:07:16.803Z,1.17
2023-03-13T15:09:47.419Z,1.30
2023-03-13T15:12:16.830Z,1.07
2023-03-13T15:14:45.880Z,1.30
2023-03-13T15:17:15.927Z,1.47
2023-03-13T15:19:44.456Z,1.00
2023-03-13T15:22:14.762Z,1.33
2023-03-13T15:24:45.239Z,1.37
2023-03-13T15:27:19.043Z,1.40
2023-03-13T15:29:47.657Z,1.30
2023-03-13T15:32:18.105Z,1.20
2023-03-13T15:34:46.770Z,1.10
2023-03-13T15:37:15.588Z,1.13
2023-03-13T15:39:43.945Z,1.50
2023-03-13T15:42:12.163Z,1.53
2023-03-13T15:44:41.701Z,1.20
2023-03-13T15:47:11.705Z,1.40
2023-03-13T15:49:39.855Z,1.30
2023-03-13T15:52:17.451Z,1.47
2023-03-13T15:54:45.666Z,1.33
2023-03-13T15:57:15.401Z,1.33
2023-03-13T15:59:45.131Z,1.40
2023-03-13T16:02:16.995Z,1.40
2023-03-13T16:04:45.379Z,1.33
2023-03-13T16:07:14.822Z,1.60
2023-03-13T16:09:43.793Z,1.53
2023-03-13T16:12:12.369Z,1.33
2023-03-13T16:14:40.808Z,1.30
2023-03-13T16:17:14.679Z,1.60
2023-03-13T16:19:42.872Z,1.80
2023-03-13T16:22:11.085Z,1.67
2023-03-13T16:24:39.299Z,1.50
2023-03-13T16:27:12.249Z,1.60
2023-03-13T16:29:40.461Z,1.73
2023-03-13T16:32:08.665Z,1.50
2023-03-13T16:34:38.186Z,1.83
2023-03-13T16:37:11.788Z,1.63
2023-03-13T16:39:39.987Z,2.00
2023-03-13T16:42:08.161Z,1.77
2023-03-13T16:44:36.349Z,1.70
2023-03-13T16:47:06.390Z,1.57
2023-03-13T16:49:34.848Z,1.90
2023-03-13T16:52:04.370Z,1.83
2023-03-13T16:54:32.534Z,1.50
2023-03-13T16:57:04.241Z,1.63
2023-03-13T16:59:32.423Z,2.10
2023-03-13T17:02:00.671Z,2.13
2023-03-13T17:04:29.021Z,2.10
2023-03-13T17:06:57.253Z,1.90
2023-03-13T17:09:26.822Z,1.80
2023-03-13T17:11:54.970Z,1.70
2023-03-13T17:14:23.148Z,1.80
2023-03-13T17:16:51.323Z,1.97
2023-03-13T17:19:19.521Z,1.90
2023-03-13T17:21:47.687Z,1.77
2023-03-13T17:24:15.834Z,1.90
2023-03-13T17:26:45.332Z,2.13
2023-03-13T17:29:16.158Z,2.40
2023-03-13T17:31:44.494Z,1.90
2023-03-13T17:34:13.063Z,2.03
2023-03-13T17:36:41.225Z,1.90
2023-03-13T17:39:09.451Z,2.00
2023-03-13T17:41:37.664Z,1.80
2023-03-13T17:44:08.167Z,1.90
2023-03-13T17:46:38.487Z,2.63
2023-03-13T17:49:07.748Z,3.43
2023-03-13T17:51:36.753Z,2.03
2023-03-13T17:54:05.414Z,2.23
2023-03-13T17:56:36.257Z,1.83
2023-03-13T17:59:05.074Z,2.20
2023-03-13T18:01:36.534Z,1.90
2023-03-13T18:04:04.754Z,2.93
2023-03-13T18:06:33.855Z,2.10
2023-03-13T18:09:07.876Z,2.13
2023-03-13T18:11:36.410Z,2.10
2023-03-13T18:14:05.340Z,2.40
2023-03-13T18:16:38.928Z,2.00
2023-03-13T18:19:07.665Z,2.00
2023-03-13T18:21:38.449Z,1.87
2023-03-13T18:24:07.105Z,1.83
2023-03-13T18:26:35.850Z,2.10
2023-03-13T18:29:05.001Z,2.03
2023-03-13T18:31:36.437Z,1.90
2023-03-13T18:34:06.326Z,2.40
2023-03-13T18:36:36.090Z,1.90
2023-03-13T18:39:06.184Z,1.70
2023-03-13T18:41:34.730Z,1.83
2023-03-13T18:44:04.203Z,2.17
2023-03-13T18:46:36.668Z,1.63
2023-03-13T18:49:07.279Z,1.90
2023-03-13T18:51:36.158Z,2.10
2023-03-13T18:54:04.960Z,1.93
2023-03-13T18:56:34.052Z,2.10
2023-03-13T18:59:02.772Z,2.00
2023-03-13T19:01:32.587Z,1.87
2023-03-13T19:04:01.250Z,2.30
2023-03-13T19:06:32.240Z,2.30
2023-03-13T19:09:02.122Z,2.10
2023-03-13T19:11:31.774Z,1.80
2023-03-13T19:14:00.335Z,1.90
2023-03-13T19:16:31.000Z,1.77
2023-03-13T19:18:59.523Z,1.50
2023-03-13T19:21:29.274Z,2.20
2023-03-13T19:23:59.184Z,2.00
2023-03-13T19:26:31.796Z,1.90
2023-03-13T19:29:00.874Z,2.00
2023-03-13T19:31:29.578Z,2.30
2023-03-13T19:34:00.935Z,2.53
2023-03-13T19:36:31.686Z,2.03
2023-03-13T19:39:07.344Z,2.00
2023-03-13T19:41:35.810Z,2.10
2023-03-13T19:44:05.897Z,2.00
2023-03-13T19:46:35.420Z,2.37
2023-03-13T19:49:04.294Z,1.67
2023-03-13T19:51:35.289Z,1.90
2023-03-13T19:54:05.240Z,1.93
2023-03-13T19:56:34.843Z,1.90
2023-03-13T19:59:04.085Z,2.80
2023-03-13T20:01:32.549Z,2.30
2023-03-13T20:04:00.933Z,2.00
2023-03-13T20:06:30.226Z,2.50
2023-03-13T20:09:00.579Z,2.03
2023-03-13T20:11:31.248Z,2.00
2023-03-13T20:14:00.066Z,1.80
2023-03-13T20:16:30.104Z,1.93
2023-03-13T20:18:58.959Z,2.10
2023-03-13T20:21:29.477Z,2.00
2023-03-13T20:23:57.829Z,1.80
2023-03-13T20:26:26.678Z,2.03
2023-03-13T20:28:57.031Z,1.87
2023-03-13T20:31:26.500Z,2.00
2023-03-13T20:33:55.217Z,2.00
2023-03-13T20:36:23.704Z,2.50
2023-03-13T20:38:51.941Z,2.20
2023-03-13T20:41:24.498Z,1.80
2023-03-13T20:43:53.543Z,2.00
2023-03-13T20:46:23.603Z,1.73
2023-03-13T20:48:52.008Z,1.93
2023-03-13T20:51:20.267Z,3.30
2023-03-13T20:53:48.574Z,1.63
2023-03-13T20:56:17.514Z,2.03
2023-03-13T20:58:45.847Z,1.97
2023-03-13T21:01:14.207Z,1.50
2023-03-13T21:03:43.888Z,1.97
2023-03-13T21:06:12.982Z,2.17
2023-03-13T21:08:41.461Z,2.00
2023-03-13T21:11:13.267Z,2.10
2023-03-13T21:13:41.496Z,1.80
2023-03-13T21:16:10.529Z,2.13
2023-03-13T21:18:38.998Z,1.63
2023-03-13T21:21:12.260Z,2.10
2023-03-13T21:23:40.909Z,1.80
2023-03-13T21:26:09.121Z,1.70
2023-03-13T21:28:37.387Z,1.90
2023-03-13T21:31:09.785Z,1.60
2023-03-13T21:33:38.480Z,2.00
2023-03-13T21:36:07.729Z,1.50
2023-03-13T21:38:37.702Z,1.73
2023-03-13T21:41:09.463Z,1.40
2023-03-13T21:43:38.654Z,1.80
2023-03-13T21:46:07.390Z,1.80
2023-03-13T21:48:35.663Z,1.80
2023-03-13T21:51:03.877Z,1.77
2023-03-13T21:53:32.696Z,1.80
2023-03-13T21:56:02.338Z,1.70
2023-03-13T21:58:30.766Z,1.50
2023-03-13T22:00:59.305Z,2.00
2023-03-13T22:03:27.652Z,1.90
2023-03-13T22:05:56.118Z,1.70
2023-03-13T22:08:24.354Z,2.20
2023-03-13T22:10:54.780Z,1.80
2023-03-13T22:13:24.369Z,2.17
2023-03-13T22:15:52.737Z,1.40
2023-03-13T22:18:20.968Z,1.87
2023-03-13T22:20:49.124Z,1.73
2023-03-13T22:23:17.316Z,1.87
2023-03-13T22:25:47.946Z,1.60
2023-03-13T22:28:16.244Z,1.80
2023-03-13T22:30:46.587Z,1.83
2023-03-13T22:33:14.867Z,1.80
2023-03-13T22:35:45.069Z,1.37
2023-03-13T22:38:13.260Z,1.63
2023-03-13T22:40:41.433Z,1.73
2023-03-13T22:43:09.595Z,1.87
2023-03-13T22:45:37.815Z,2.17
2023-03-13T22:48:07.981Z,1.67
2023-03-13T22:50:37.948Z,1.70
2023-03-13T22:53:06.213Z,1.67
2023-03-13T22:55:34.701Z,1.80
2023-03-13T22:58:03.968Z,1.90
2023-03-13T23:00:32.177Z,1.90
2023-03-13T23:03:00.341Z,1.80
2023-03-13T23:05:29.863Z,1.97
2023-03-13T23:07:58.025Z,1.77
2023-03-13T23:10:26.188Z,2.07
2023-03-13T23:12:54.355Z,1.97
2023-03-13T23:15:23.479Z,1.77
2023-03-13T23:17:51.727Z,1.83
2023-03-13T23:20:21.074Z,2.17
2023-03-13T23:22:50.640Z,1.70
2023-03-13T23:25:18.995Z,2.10
2023-03-13T23:27:47.334Z,2.10
2023-03-13T23:30:17.100Z,1.87
2023-03-13T23:32:46.855Z,2.10
2023-03-13T23:35:16.817Z,1.90
2023-03-13T23:37:48.074Z,1.70
2023-03-13T23:40:17.658Z,1.70
2023-03-13T23:42:46.206Z,1.77
2023-03-13T23:45:14.674Z,1.67
2023-03-13T23:47:43.988Z,1.80
2023-03-13T23:50:12.674Z,1.80
2023-03-13T23:52:41.216Z,1.90
2023-03-13T23:55:10.006Z,2.33
2023-03-13T23:57:39.582Z,2.03
